Canton, Ohio
Current Conditions -  °F | °C
As of 11:14 AM on Sunday 25 Jan 2015 (Local Time) from KCAK Reporting Station
Light Snow Light Snow  
Wind Chill: 23°   Ceiling: 500
Heat Index: 32°   Visibility: 1mi
Dew Point: 28°   Wind: 12mph
Humidity: 85%   Direction: 60°ENE
Pressure: 29.81"   Gusts: NA
Location:  40.8°N, 81.37°W
Report Text: KCAK 251614Z 06010KT 1SM R23/6000VP6000FT -SN BR OVC005 00/M02 A2981 RMK AO2 VIS 1/2V1 1/2 P0001 T00001022
Loading
Personal Weather Stations






























Interactive Weather Map New forecast layout! Learn more

10-Day Weather Forecast

Advertisements
Track Severe Weather on mobile